createdAt,value
2018-12-25T00:00:00.665Z,4.90
2018-12-25T00:02:29.219Z,4.90
2018-12-25T00:04:57.745Z,4.80
2018-12-25T00:07:26.211Z,4.70
2018-12-25T00:09:54.704Z,4.70
2018-12-25T00:12:23.257Z,4.60
2018-12-25T00:14:51.729Z,4.60
2018-12-25T00:17:20.209Z,4.60
2018-12-25T00:19:48.732Z,4.70
2018-12-25T00:22:17.192Z,4.80
2018-12-25T00:24:45.691Z,4.80
2018-12-25T00:27:14.164Z,4.80
2018-12-25T00:29:42.611Z,4.70
2018-12-25T00:32:11.122Z,4.80
2018-12-25T00:34:39.578Z,4.80
2018-12-25T00:37:08.107Z,4.80
2018-12-25T00:39:36.671Z,4.80
2018-12-25T00:42:05.126Z,4.80
2018-12-25T00:44:33.716Z,4.70
2018-12-25T00:47:02.221Z,4.70
2018-12-25T00:49:30.675Z,4.80
2018-12-25T00:51:59.151Z,4.80
2018-12-25T00:54:27.627Z,4.80
2018-12-25T00:56:56.076Z,4.80
2018-12-25T00:59:24.571Z,4.70
2018-12-25T01:01:53.054Z,4.80
2018-12-25T01:04:21.530Z,4.80
2018-12-25T01:06:50.050Z,4.80
2018-12-25T01:09:18.545Z,4.80
2018-12-25T01:11:47.124Z,4.80
2018-12-25T01:14:15.593Z,4.80
2018-12-25T01:16:44.074Z,4.80
2018-12-25T01:19:12.520Z,4.80
2018-12-25T01:21:40.988Z,4.70
2018-12-25T01:24:09.471Z,4.70
2018-12-25T01:26:37.948Z,4.70
2018-12-25T01:29:06.467Z,4.60
2018-12-25T01:31:35.080Z,4.60
2018-12-25T01:34:03.606Z,4.60
2018-12-25T01:36:32.060Z,4.70
2018-12-25T01:39:00.558Z,4.80
2018-12-25T01:41:29.025Z,4.80
2018-12-25T01:43:57.488Z,4.90
2018-12-25T01:46:25.971Z,4.90
2018-12-25T01:48:54.425Z,4.90
2018-12-25T01:51:22.977Z,4.90
2018-12-25T01:53:51.524Z,4.90
2018-12-25T01:56:20.003Z,4.70
2018-12-25T01:58:48.605Z,4.70
2018-12-25T02:01:17.112Z,4.80
2018-12-25T02:03:45.671Z,4.70
2018-12-25T02:06:14.137Z,4.80
2018-12-25T02:08:42.697Z,4.80
2018-12-25T02:11:11.196Z,4.80
2018-12-25T02:13:39.648Z,4.70
2018-12-25T02:16:08.128Z,4.60
2018-12-25T02:18:36.701Z,4.60
2018-12-25T02:21:05.172Z,4.60
2018-12-25T02:23:33.708Z,4.70
2018-12-25T02:26:02.345Z,4.70
2018-12-25T02:28:30.872Z,4.60
2018-12-25T02:30:59.325Z,4.60
2018-12-25T02:33:27.829Z,4.60
2018-12-25T02:35:56.379Z,4.60
2018-12-25T02:38:24.840Z,4.60
2018-12-25T02:40:53.323Z,4.60
2018-12-25T02:43:21.796Z,4.60
2018-12-25T02:45:50.261Z,4.70
2018-12-25T02:48:18.754Z,4.70
2018-12-25T02:50:47.227Z,4.80
2018-12-25T02:53:15.693Z,4.70
2018-12-25T02:55:44.258Z,4.80
2018-12-25T02:58:12.752Z,4.80
2018-12-25T03:00:41.235Z,4.80
2018-12-25T03:03:09.913Z,4.70
2018-12-25T03:05:38.368Z,4.60
2018-12-25T03:08:06.845Z,4.60
2018-12-25T03:10:35.345Z,4.70
2018-12-25T03:13:03.875Z,4.60
2018-12-25T03:15:32.327Z,4.60
2018-12-25T03:18:00.814Z,4.50
2018-12-25T03:20:29.277Z,4.50
2018-12-25T03:22:57.732Z,4.60
2018-12-25T03:25:26.216Z,4.50
2018-12-25T03:27:54.745Z,4.50
2018-12-25T03:30:23.202Z,4.50
2018-12-25T03:32:51.693Z,4.60
2018-12-25T03:35:20.153Z,4.70
2018-12-25T03:37:48.680Z,4.60
2018-12-25T03:40:17.169Z,4.60
2018-12-25T03:42:45.624Z,4.60
2018-12-25T03:45:14.103Z,4.60
2018-12-25T03:47:42.750Z,4.60
2018-12-25T03:50:11.386Z,4.60
2018-12-25T03:52:39.909Z,4.60
2018-12-25T03:55:08.403Z,4.50
2018-12-25T03:57:36.883Z,4.50
2018-12-25T04:00:07.197Z,4.50
2018-12-25T04:02:35.691Z,4.50
2018-12-25T04:05:04.858Z,4.50
2018-12-25T04:07:33.411Z,4.50
2018-12-25T04:10:01.902Z,4.40
2018-12-25T04:12:30.374Z,4.50
2018-12-25T04:14:58.903Z,4.40
2018-12-25T04:17:27.464Z,4.40
2018-12-25T04:19:55.928Z,4.40
2018-12-25T04:22:24.389Z,4.40
2018-12-25T04:24:52.892Z,4.50
2018-12-25T04:27:21.430Z,4.50
2018-12-25T04:29:49.894Z,4.50
2018-12-25T04:32:18.416Z,4.50
2018-12-25T04:34:46.897Z,4.50
2018-12-25T04:37:15.370Z,4.50
2018-12-25T04:39:43.855Z,4.50
2018-12-25T04:42:12.577Z,4.50
2018-12-25T04:44:41.036Z,4.40
2018-12-25T04:47:09.525Z,4.40
2018-12-25T04:49:37.990Z,4.40
2018-12-25T04:52:06.444Z,4.50
2018-12-25T04:54:34.944Z,4.50
2018-12-25T04:57:03.406Z,4.40
2018-12-25T04:59:31.882Z,4.30
2018-12-25T05:02:00.585Z,4.40
2018-12-25T05:04:29.047Z,4.40
2018-12-25T05:06:57.509Z,4.50
2018-12-25T05:09:26.008Z,4.50
2018-12-25T05:11:54.536Z,4.40
2018-12-25T05:14:22.992Z,4.40
2018-12-25T05:16:51.476Z,4.40
2018-12-25T05:19:20.008Z,4.40
2018-12-25T05:21:48.609Z,4.40
2018-12-25T05:24:17.178Z,4.40
2018-12-25T05:26:45.636Z,4.40
2018-12-25T05:29:14.114Z,4.50
2018-12-25T05:31:42.622Z,4.50
2018-12-25T05:34:11.089Z,4.50
2018-12-25T05:36:39.545Z,4.40
2018-12-25T05:39:08.037Z,4.40
2018-12-25T05:41:36.517Z,4.40
2018-12-25T05:44:04.977Z,4.40
2018-12-25T05:46:33.472Z,4.30
2018-12-25T05:49:01.998Z,4.30
2018-12-25T05:51:30.475Z,4.40
2018-12-25T05:53:58.964Z,4.40
2018-12-25T05:56:27.416Z,4.40
2018-12-25T05:58:55.877Z,4.50
2018-12-25T06:01:24.363Z,4.40
2018-12-25T06:03:52.867Z,4.40
2018-12-25T06:06:21.319Z,4.40
2018-12-25T06:08:49.812Z,4.40
2018-12-25T06:11:18.290Z,4.40
2018-12-25T06:13:46.875Z,4.30
2018-12-25T06:16:15.369Z,4.30
2018-12-25T06:18:43.892Z,4.40
2018-12-25T06:21:12.340Z,4.40
2018-12-25T06:23:40.841Z,4.40
2018-12-25T06:26:09.299Z,4.40
2018-12-25T06:28:37.815Z,4.40
2018-12-25T06:31:06.328Z,4.40
2018-12-25T06:33:34.875Z,4.30
2018-12-25T06:36:03.320Z,4.30
2018-12-25T06:38:31.811Z,4.20
2018-12-25T06:41:00.271Z,4.20
2018-12-25T06:43:28.766Z,4.30
2018-12-25T06:45:57.221Z,4.30
2018-12-25T06:48:25.673Z,4.20
2018-12-25T06:50:54.150Z,4.20
2018-12-25T06:53:22.668Z,4.20
2018-12-25T06:55:51.137Z,4.20
2018-12-25T06:58:19.628Z,4.20
2018-12-25T07:00:48.143Z,4.20
2018-12-25T07:03:16.601Z,4.20
2018-12-25T07:05:48.141Z,4.20
2018-12-25T07:08:18.189Z,4.20
2018-12-25T07:10:46.682Z,4.20
2018-12-25T07:13:15.163Z,4.20
2018-12-25T07:15:43.692Z,4.20
2018-12-25T07:18:12.207Z,4.30
2018-12-25T07:20:40.706Z,4.20
2018-12-25T07:23:09.175Z,4.20
2018-12-25T07:25:37.684Z,4.20
2018-12-25T07:28:06.165Z,4.10
2018-12-25T07:30:34.625Z,4.00
2018-12-25T07:33:03.140Z,4.00
2018-12-25T07:35:31.692Z,4.00
2018-12-25T07:38:00.192Z,3.90
2018-12-25T07:40:28.720Z,3.90
2018-12-25T07:42:57.224Z,3.80
2018-12-25T07:45:27.270Z,3.80
2018-12-25T07:47:55.721Z,3.80
2018-12-25T07:50:24.212Z,3.70
2018-12-25T07:52:52.673Z,3.70
2018-12-25T07:55:21.132Z,3.70
2018-12-25T07:57:49.695Z,3.60
2018-12-25T08:00:19.579Z,3.70
2018-12-25T08:02:48.272Z,3.70
2018-12-25T08:05:17.396Z,3.80
2018-12-25T08:07:45.852Z,3.70
2018-12-25T08:10:14.309Z,3.80
2018-12-25T08:12:42.833Z,3.80
2018-12-25T08:15:11.324Z,3.70
2018-12-25T08:17:39.790Z,3.70
2018-12-25T08:20:08.683Z,3.70
2018-12-25T08:22:37.189Z,3.70
2018-12-25T08:25:06.016Z,3.70
2018-12-25T08:27:34.499Z,3.70
2018-12-25T08:30:03.017Z,3.70
2018-12-25T08:32:31.465Z,3.80
2018-12-25T08:35:00.050Z,3.80
2018-12-25T08:37:28.568Z,3.80
2018-12-25T08:39:57.065Z,3.80
2018-12-25T08:42:25.608Z,3.90
2018-12-25T08:44:54.064Z,3.80
2018-12-25T08:47:22.601Z,3.90
2018-12-25T08:49:51.087Z,3.90
2018-12-25T08:52:19.637Z,3.90
2018-12-25T08:54:48.085Z,3.90
2018-12-25T08:57:16.540Z,4.00
2018-12-25T08:59:45.045Z,4.00
2018-12-25T09:02:13.499Z,4.10
2018-12-25T09:04:41.964Z,4.10
2018-12-25T09:07:10.484Z,4.00
2018-12-25T09:09:38.941Z,4.10
2018-12-25T09:12:07.459Z,4.10
2018-12-25T09:14:35.944Z,4.00
2018-12-25T09:17:04.505Z,4.10
2018-12-25T09:19:32.959Z,4.10
2018-12-25T09:22:01.449Z,4.20
2018-12-25T09:24:29.904Z,4.20
2018-12-25T09:26:58.434Z,4.20
2018-12-25T09:29:26.933Z,4.10
2018-12-25T09:31:55.560Z,4.20
2018-12-25T09:34:24.116Z,4.20
2018-12-25T09:36:52.585Z,4.20
2018-12-25T09:39:21.100Z,4.30
2018-12-25T09:41:49.628Z,4.30
2018-12-25T09:44:18.096Z,4.20
2018-12-25T09:46:46.619Z,4.20
2018-12-25T09:49:15.262Z,4.30
2018-12-25T09:51:45.285Z,4.30
2018-12-25T09:54:13.789Z,4.40
2018-12-25T09:56:42.270Z,4.40
2018-12-25T09:59:10.733Z,4.40
2018-12-25T10:01:39.297Z,4.50
2018-12-25T10:04:07.940Z,4.50
2018-12-25T10:06:36.412Z,4.60
2018-12-25T10:09:07.114Z,4.70
2018-12-25T10:11:35.609Z,4.80
2018-12-25T10:14:04.141Z,4.70
2018-12-25T10:16:32.768Z,4.80
2018-12-25T10:19:01.354Z,4.90
2018-12-25T10:21:29.987Z,4.90
2018-12-25T10:23:58.545Z,4.90
2018-12-25T10:26:27.212Z,5.00
2018-12-25T10:28:55.675Z,4.90
2018-12-25T10:31:24.120Z,4.90
2018-12-25T10:33:52.604Z,4.90
2018-12-25T10:36:21.061Z,4.90
2018-12-25T10:38:49.580Z,4.90
2018-12-25T10:41:18.072Z,5.00
2018-12-25T10:43:46.536Z,5.00
2018-12-25T10:46:14.996Z,5.00
2018-12-25T10:48:43.472Z,5.10
2018-12-25T10:51:11.950Z,5.20
2018-12-25T10:53:40.473Z,5.30
2018-12-25T10:56:08.996Z,5.40
2018-12-25T10:58:37.466Z,5.40
2018-12-25T11:01:09.330Z,5.50
2018-12-25T11:03:37.888Z,5.60
2018-12-25T11:06:06.460Z,5.50
2018-12-25T11:08:35.052Z,5.50
2018-12-25T11:11:03.536Z,5.50
2018-12-25T11:13:32.092Z,5.60
2018-12-25T11:16:00.785Z,5.60
2018-12-25T11:18:29.364Z,5.60
2018-12-25T11:20:57.880Z,5.70
2018-12-25T11:23:26.494Z,5.90
2018-12-25T11:25:55.020Z,6.00
2018-12-25T11:28:23.592Z,6.10
2018-12-25T11:30:52.128Z,5.90
2018-12-25T11:33:20.596Z,5.90
2018-12-25T11:35:49.069Z,5.90
2018-12-25T11:38:17.560Z,5.80
2018-12-25T11:40:46.020Z,5.80
2018-12-25T11:43:14.515Z,5.80
2018-12-25T11:45:42.996Z,5.80
2018-12-25T11:48:11.461Z,6.00
2018-12-25T11:50:40.128Z,6.30
2018-12-25T11:53:12.352Z,6.50
2018-12-25T11:55:40.862Z,6.60
2018-12-25T11:58:09.320Z,6.80
2018-12-25T12:00:37.817Z,7.20
2018-12-25T12:03:06.285Z,7.20
2018-12-25T12:05:34.745Z,7.60
2018-12-25T12:08:03.246Z,7.60
2018-12-25T12:10:31.841Z,7.80
2018-12-25T12:13:00.381Z,7.70
2018-12-25T12:15:28.869Z,7.80
2018-12-25T12:17:57.356Z,7.80
2018-12-25T12:20:25.813Z,7.60
2018-12-25T12:22:54.448Z,7.80
2018-12-25T12:25:23.037Z,8.00
2018-12-25T12:27:51.492Z,7.80
2018-12-25T12:30:19.972Z,7.50
2018-12-25T12:32:48.428Z,7.30
2018-12-25T12:35:16.918Z,7.30
2018-12-25T12:37:45.436Z,7.40
2018-12-25T12:40:13.895Z,7.30
2018-12-25T12:42:42.372Z,7.20
2018-12-25T12:45:10.989Z,7.20
2018-12-25T12:47:39.596Z,7.20
2018-12-25T12:50:28.997Z,7.10
2018-12-25T12:52:57.533Z,7.00
2018-12-25T12:55:25.984Z,6.90
2018-12-25T12:57:54.492Z,6.70
2018-12-25T13:00:22.981Z,6.70
2018-12-25T13:02:51.516Z,6.80
2018-12-25T13:05:19.996Z,6.80
2018-12-25T13:07:48.507Z,6.70
2018-12-25T13:10:17.160Z,6.60
2018-12-25T13:12:45.704Z,6.80
2018-12-25T13:15:14.268Z,6.90
2018-12-25T13:17:42.741Z,6.80
2018-12-25T13:20:11.231Z,6.60
2018-12-25T13:22:39.704Z,6.60
2018-12-25T13:25:08.166Z,6.50
2018-12-25T13:27:36.725Z,6.50
2018-12-25T13:30:07.995Z,6.50
2018-12-25T13:32:36.446Z,6.40
2018-12-25T13:35:05.400Z,6.30
2018-12-25T13:37:33.883Z,6.40
2018-12-25T13:40:02.344Z,6.30
2018-12-25T13:42:31.006Z,6.40
2018-12-25T13:44:59.464Z,6.40
2018-12-25T13:47:27.925Z,6.40
2018-12-25T13:49:56.425Z,6.40
2018-12-25T13:52:24.952Z,6.50
2018-12-25T13:54:53.468Z,6.40
2018-12-25T13:57:24.478Z,6.50
2018-12-25T13:59:52.952Z,6.50
2018-12-25T14:02:21.456Z,6.50
2018-12-25T14:04:52.737Z,6.50
2018-12-25T14:07:21.269Z,6.40
2018-12-25T14:09:49.817Z,6.30
2018-12-25T14:12:18.364Z,6.40
2018-12-25T14:14:46.886Z,6.40
2018-12-25T14:17:15.372Z,6.40
2018-12-25T14:19:43.928Z,6.40
2018-12-25T14:22:13.350Z,6.30
2018-12-25T14:24:41.844Z,6.30
2018-12-25T14:27:10.580Z,6.30
2018-12-25T14:29:39.044Z,6.30
2018-12-25T14:32:07.539Z,6.20
2018-12-25T14:34:35.988Z,6.10
2018-12-25T14:37:04.454Z,6.00
2018-12-25T14:39:32.954Z,5.90
2018-12-25T14:42:01.480Z,5.90
2018-12-25T14:44:30.004Z,5.80
2018-12-25T14:46:58.551Z,5.80
2018-12-25T14:49:27.060Z,6.30
2018-12-25T14:51:55.583Z,6.00
2018-12-25T14:54:24.245Z,6.10
2018-12-25T14:56:54.243Z,5.90
2018-12-25T14:59:22.873Z,5.70
2018-12-25T15:01:51.450Z,5.70
2018-12-25T15:04:20.192Z,5.90
2018-12-25T15:06:52.859Z,5.80
2018-12-25T15:09:19.078Z,5.70
2018-12-25T15:11:50.373Z,5.60
2018-12-25T15:14:18.987Z,5.60
2018-12-25T15:16:47.548Z,5.60
2018-12-25T15:19:16.108Z,5.50
2018-12-25T15:21:47.028Z,5.40
2018-12-25T15:24:15.566Z,5.40
2018-12-25T15:26:44.205Z,5.30
2018-12-25T15:29:12.960Z,5.30
2018-12-25T15:31:41.428Z,5.20
2018-12-25T15:34:09.964Z,5.20
2018-12-25T15:36:38.668Z,5.20
2018-12-25T15:39:10.060Z,5.10
2018-12-25T15:41:38.548Z,5.00
2018-12-25T15:44:07.168Z,4.90
2018-12-25T15:46:35.729Z,4.80
2018-12-25T15:49:04.233Z,4.80
2018-12-25T15:51:34.506Z,4.80
2018-12-25T15:54:03.659Z,4.80
2018-12-25T15:56:32.197Z,4.70
2018-12-25T15:59:00.796Z,4.70
2018-12-25T16:01:32.492Z,4.60
2018-12-25T16:04:01.046Z,4.50
2018-12-25T16:06:29.678Z,4.50
2018-12-25T16:09:05.795Z,4.60
2018-12-25T16:11:34.477Z,4.50
2018-12-25T16:14:03.102Z,4.40
2018-12-25T16:16:31.613Z,4.40
2018-12-25T16:19:00.085Z,4.40
2018-12-25T16:21:28.603Z,4.30
2018-12-25T16:23:57.117Z,4.20
2018-12-25T16:26:27.492Z,4.20
2018-12-25T16:28:56.080Z,4.10
2018-12-25T16:31:24.540Z,4.00
2018-12-25T16:33:53.049Z,3.90
2018-12-25T16:36:21.600Z,3.90
2018-12-25T16:39:09.555Z,3.90
2018-12-25T16:41:38.026Z,3.90
2018-12-25T16:44:06.492Z,3.80
2018-12-25T16:46:34.988Z,3.70
2018-12-25T16:49:03.467Z,3.70
2018-12-25T16:51:51.434Z,3.60
2018-12-25T16:54:19.901Z,3.60
2018-12-25T16:57:11.085Z,3.40
2018-12-25T16:59:40.375Z,3.40
2018-12-25T17:02:08.831Z,3.40
2018-12-25T17:04:37.380Z,3.40
2018-12-25T17:07:05.927Z,3.30
2018-12-25T17:09:34.396Z,3.30
2018-12-25T17:12:02.890Z,3.30
2018-12-25T17:14:31.348Z,3.30
2018-12-25T17:16:59.857Z,3.30
2018-12-25T17:19:28.347Z,3.20
2018-12-25T17:21:56.861Z,3.20
2018-12-25T17:24:25.428Z,3.20
2018-12-25T17:26:53.921Z,3.10
2018-12-25T17:29:24.062Z,3.10
2018-12-25T17:31:52.698Z,3.10
2018-12-25T17:34:21.159Z,3.10
2018-12-25T17:36:53.888Z,3.10
2018-12-25T17:39:19.848Z,3.00
2018-12-25T17:41:48.400Z,3.00
2018-12-25T17:44:17.671Z,3.00
2018-12-25T17:46:46.444Z,2.90
2018-12-25T17:49:15.534Z,2.90
2018-12-25T17:51:44.007Z,2.80
2018-12-25T17:54:12.838Z,2.90
2018-12-25T17:56:41.293Z,2.80
2018-12-25T17:59:09.836Z,2.80
2018-12-25T18:01:38.489Z,2.80
2018-12-25T18:04:06.978Z,2.80
2018-12-25T18:06:35.451Z,2.70
2018-12-25T18:09:05.606Z,2.70
2018-12-25T18:11:34.220Z,2.60
2018-12-25T18:14:02.769Z,2.60
2018-12-25T18:16:31.385Z,2.50
2018-12-25T18:18:59.855Z,2.50
2018-12-25T18:21:28.314Z,2.50
2018-12-25T18:24:19.436Z,2.50
2018-12-25T18:26:47.717Z,2.50
2018-12-25T18:29:16.176Z,2.50
2018-12-25T18:31:44.712Z,2.40
2018-12-25T18:34:13.828Z,2.40
2018-12-25T18:36:42.304Z,2.40
2018-12-25T18:39:10.827Z,2.40
2018-12-25T18:41:39.360Z,2.30
2018-12-25T18:44:07.907Z,2.40
2018-12-25T18:46:36.463Z,2.30
2018-12-25T18:49:04.923Z,2.40
2018-12-25T18:51:52.820Z,2.40
2018-12-25T18:54:27.792Z,2.30
2018-12-25T18:56:51.550Z,2.30
2018-12-25T18:59:20.164Z,2.20
2018-12-25T19:01:48.664Z,2.20
2018-12-25T19:04:17.232Z,2.20
2018-12-25T19:06:47.513Z,2.20
2018-12-25T19:09:16.000Z,2.20
2018-12-25T19:12:03.815Z,2.20
2018-12-25T19:14:32.353Z,2.10
2018-12-25T19:17:00.832Z,2.10
2018-12-25T19:19:29.508Z,2.00
2018-12-25T19:21:58.036Z,2.00
2018-12-25T19:24:26.528Z,2.00
2018-12-25T19:26:55.039Z,1.90
2018-12-25T19:29:23.513Z,1.90
2018-12-25T19:31:51.982Z,1.90
2018-12-25T19:34:20.477Z,1.90
2018-12-25T19:36:48.936Z,1.80
2018-12-25T19:39:17.392Z,1.80
2018-12-25T19:41:46.040Z,1.80
2018-12-25T19:44:14.518Z,1.80
2018-12-25T19:47:02.388Z,1.80
2018-12-25T19:49:30.957Z,1.80
2018-12-25T19:51:59.465Z,1.80
2018-12-25T19:54:28.080Z,1.80
2018-12-25T19:56:56.633Z,1.90
2018-12-25T19:59:25.116Z,1.90
2018-12-25T20:01:53.681Z,1.90
2018-12-25T20:04:27.916Z,2.00
2018-12-25T20:07:29.976Z,1.90
2018-12-25T20:10:13.747Z,2.00
2018-12-25T20:12:53.831Z,1.90
2018-12-25T20:15:34.172Z,1.90
2018-12-25T20:18:45.770Z,1.90
2018-12-25T20:21:33.487Z,1.90
2018-12-25T20:24:05.117Z,1.90
2018-12-25T20:26:36.685Z,1.80
2018-12-25T20:29:24.473Z,1.80
2018-12-25T20:32:21.817Z,1.70
2018-12-25T20:35:04.571Z,1.60
2018-12-25T20:37:41.748Z,1.50
2018-12-25T20:40:16.188Z,1.50
2018-12-25T20:42:50.447Z,1.50
2018-12-25T20:45:38.691Z,1.50
2018-12-25T20:48:29.802Z,1.60
2018-12-25T20:51:32.789Z,1.60
2018-12-25T20:54:19.061Z,1.60
2018-12-25T20:56:59.371Z,1.60
2018-12-25T20:59:48.777Z,1.50
2018-12-25T21:02:43.036Z,1.40
2018-12-25T21:05:17.476Z,1.50
2018-12-25T21:08:06.641Z,1.40
2018-12-25T21:10:47.037Z,1.40
2018-12-25T21:13:18.593Z,1.20
2018-12-25T21:16:01.940Z,1.10
2018-12-25T21:18:54.007Z,1.10
2018-12-25T21:21:48.089Z,1.10
2018-12-25T21:24:42.413Z,1.20
2018-12-25T21:27:30.165Z,1.20
2018-12-25T21:30:00.468Z,1.20
2018-12-25T21:32:30.775Z,1.20
2018-12-25T21:35:19.359Z,1.10
2018-12-25T21:37:48.061Z,1.10
2018-12-25T21:40:16.793Z,1.20
2018-12-25T21:42:46.353Z,1.30
2018-12-25T21:45:15.164Z,1.40
2018-12-25T21:47:44.240Z,1.40
2018-12-25T21:50:12.873Z,1.30
2018-12-25T21:53:00.809Z,1.20
2018-12-25T21:55:29.384Z,1.20
2018-12-25T21:57:58.513Z,1.30
2018-12-25T22:00:27.145Z,1.30
2018-12-25T22:02:56.229Z,1.10
2018-12-25T22:05:24.756Z,1.10
2018-12-25T22:07:53.364Z,1.10
2018-12-25T22:10:21.919Z,1.00
2018-12-25T22:12:50.396Z,1.00
2018-12-25T22:15:19.028Z,1.10
2018-12-25T22:17:47.540Z,1.00
2018-12-25T22:20:19.160Z,0.80
2018-12-25T22:22:47.732Z,0.90
2018-12-25T22:25:16.261Z,0.80
2018-12-25T22:27:44.812Z,0.80
2018-12-25T22:30:13.297Z,0.80
2018-12-25T22:32:41.781Z,0.80
2018-12-25T22:35:10.325Z,0.90
2018-12-25T22:37:38.980Z,0.90
2018-12-25T22:40:07.524Z,0.90
2018-12-25T22:42:36.047Z,1.00
2018-12-25T22:45:06.306Z,0.90
2018-12-25T22:47:34.763Z,0.90
2018-12-25T22:50:03.677Z,1.00
2018-12-25T22:52:32.162Z,1.10
2018-12-25T22:55:00.607Z,1.10
2018-12-25T22:57:29.106Z,1.10
2018-12-25T22:59:57.616Z,1.10
2018-12-25T23:02:26.087Z,1.20
2018-12-25T23:04:54.577Z,1.20
2018-12-25T23:07:23.092Z,1.20
2018-12-25T23:09:51.565Z,1.20
2018-12-25T23:12:20.022Z,1.10
2018-12-25T23:14:48.583Z,1.10
2018-12-25T23:17:17.048Z,1.10
2018-12-25T23:19:45.522Z,1.10
2018-12-25T23:22:14.172Z,1.10
2018-12-25T23:24:42.629Z,1.20
2018-12-25T23:27:11.088Z,1.20
2018-12-25T23:29:39.563Z,1.20
2018-12-25T23:32:08.041Z,1.10
2018-12-25T23:34:36.527Z,1.10
2018-12-25T23:37:05.038Z,1.10
2018-12-25T23:39:33.665Z,1.10
2018-12-25T23:42:02.144Z,1.10
2018-12-25T23:44:30.611Z,1.10
2018-12-25T23:46:59.111Z,1.10
2018-12-25T23:49:27.570Z,1.10
2018-12-25T23:51:56.028Z,1.00
2018-12-25T23:54:24.525Z,1.00
2018-12-25T23:56:52.975Z,1.10
2018-12-25T23:59:21.460Z,1.00
